Randallsville, New York
Current Conditions -  °F | °C
As of 7:53 AM on Thursday 23 Oct 2014 (Local Time) from KRME Reporting Station
Overcast Overcast  
Wind Chill: 39°   Ceiling: 2100
Heat Index: 45°   Visibility: 10mi
Dew Point: 39°   Wind: 12mph
Humidity: 80%   Direction: 340°NNW
Pressure: 29.95"   Gusts: NA
Location:  42.8198°N, 75.5443°W
Report Text: KRME 231153Z 34010KT 10SM OVC021 07/04 A2995 RMK AO2 SLP144 70001 T00720039 10083 20061 58009
Loading
Personal Weather Stations






























Interactive Weather Map
Tropical Storm Tracking
New forecast layout! Learn more

10-Day Weather Forecast

Advertisements
Track Severe Weather on mobile